sensor_id;sensor_type;location;lat;lon;timestamp;temperature;humidity
23395;DHT22;11870;53.084;18.206;2022-12-18T00:01:37;-1.80;99.90
23395;DHT22;11870;53.084;18.206;2022-12-18T00:04:07;-3.10;99.90
23395;DHT22;11870;53.084;18.206;2022-12-18T00:06:34;-3.10;99.90
23395;DHT22;11870;53.084;18.206;2022-12-18T00:09:02;-3.10;99.90
23395;DHT22;11870;53.084;18.206;2022-12-18T00:11:30;-3.00;99.90
23395;DHT22;11870;53.084;18.206;2022-12-18T00:13:57;-3.10;99.90
23395;DHT22;11870;53.084;18.206;2022-12-18T00:16:25;-3.00;99.90
23395;DHT22;11870;53.084;18.206;2022-12-18T00:18:54;-3.00;99.90
23395;DHT22;11870;53.084;18.206;2022-12-18T00:21:20;-3.00;99.90
23395;DHT22;11870;53.084;18.206;2022-12-18T00:23:48;-3.00;99.90
23395;DHT22;11870;53.084;18.206;2022-12-18T00:26:17;-3.00;99.90
23395;DHT22;11870;53.084;18.206;2022-12-18T00:28:44;-3.00;99.90
23395;DHT22;11870;53.084;18.206;2022-12-18T00:31:13;-3.00;99.90
23395;DHT22;11870;53.084;18.206;2022-12-18T00:33:40;-2.90;99.90
23395;DHT22;11870;53.084;18.206;2022-12-18T00:36:11;-2.90;99.90
23395;DHT22;11870;53.084;18.206;2022-12-18T00:38:38;-2.80;99.90
23395;DHT22;11870;53.084;18.206;2022-12-18T00:41:05;-2.80;99.90
23395;DHT22;11870;53.084;18.206;2022-12-18T00:43:36;-2.80;99.90
23395;DHT22;11870;53.084;18.206;2022-12-18T00:46:02;-2.80;99.90
23395;DHT22;11870;53.084;18.206;2022-12-18T00:48:28;-2.80;99.90
23395;DHT22;11870;53.084;18.206;2022-12-18T00:50:55;-2.90;99.90
23395;DHT22;11870;53.084;18.206;2022-12-18T00:53:22;-2.80;99.90
23395;DHT22;11870;53.084;18.206;2022-12-18T00:55:49;-2.80;99.90
23395;DHT22;11870;53.084;18.206;2022-12-18T00:58:16;-2.80;99.90
23395;DHT22;11870;53.084;18.206;2022-12-18T01:00:42;-2.70;99.90
23395;DHT22;11870;53.084;18.206;2022-12-18T01:03:10;-2.70;99.90
23395;DHT22;11870;53.084;18.206;2022-12-18T01:05:41;-2.70;99.90
23395;DHT22;11870;53.084;18.206;2022-12-18T01:08:07;-2.80;99.90
23395;DHT22;11870;53.084;18.206;2022-12-18T01:10:33;-2.80;99.90
23395;DHT22;11870;53.084;18.206;2022-12-18T01:12:59;-2.90;99.90
23395;DHT22;11870;53.084;18.206;2022-12-18T01:15:25;-2.90;99.90
23395;DHT22;11870;53.084;18.206;2022-12-18T01:17:52;-3.00;99.90
23395;DHT22;11870;53.084;18.206;2022-12-18T01:20:19;-3.00;99.90
23395;DHT22;11870;53.084;18.206;2022-12-18T01:22:45;-3.00;99.90
23395;DHT22;11870;53.084;18.206;2022-12-18T01:25:11;-2.90;99.90
23395;DHT22;11870;53.084;18.206;2022-12-18T01:27:36;-2.90;99.90
23395;DHT22;11870;53.084;18.206;2022-12-18T01:30:03;-2.80;99.90
23395;DHT22;11870;53.084;18.206;2022-12-18T01:32:31;-2.80;99.90
23395;DHT22;11870;53.084;18.206;2022-12-18T01:34:57;-2.70;99.90
23395;DHT22;11870;53.084;18.206;2022-12-18T01:37:23;-2.70;99.90
23395;DHT22;11870;53.084;18.206;2022-12-18T01:39:49;-2.60;99.90
23395;DHT22;11870;53.084;18.206;2022-12-18T01:42:16;-2.70;99.90
23395;DHT22;11870;53.084;18.206;2022-12-18T01:50:23;-2.60;99.90
23395;DHT22;11870;53.084;18.206;2022-12-18T01:53:02;-2.50;99.90
23395;DHT22;11870;53.084;18.206;2022-12-18T01:55:31;-2.50;99.90
23395;DHT22;11870;53.084;18.206;2022-12-18T01:57:59;-2.50;99.90
23395;DHT22;11870;53.084;18.206;2022-12-18T02:00:26;-2.50;99.90
23395;DHT22;11870;53.084;18.206;2022-12-18T02:02:53;-2.60;99.90
23395;DHT22;11870;53.084;18.206;2022-12-18T02:10:31;-2.60;99.90
23395;DHT22;11870;53.084;18.206;2022-12-18T02:18:32;-2.60;99.90
23395;DHT22;11870;53.084;18.206;2022-12-18T02:26:56;-2.50;99.90
23395;DHT22;11870;53.084;18.206;2022-12-18T02:29:26;-2.60;99.90
23395;DHT22;11870;53.084;18.206;2022-12-18T02:31:58;-2.60;99.90
23395;DHT22;11870;53.084;18.206;2022-12-18T02:34:30;-2.60;99.90
23395;DHT22;11870;53.084;18.206;2022-12-18T02:36:59;-2.60;99.90
23395;DHT22;11870;53.084;18.206;2022-12-18T02:39:27;-2.60;99.90
23395;DHT22;11870;53.084;18.206;2022-12-18T02:41:55;-2.50;99.90
23395;DHT22;11870;53.084;18.206;2022-12-18T02:44:22;-2.40;99.90
23395;DHT22;11870;53.084;18.206;2022-12-18T02:46:52;-2.40;99.90
23395;DHT22;11870;53.084;18.206;2022-12-18T02:57:50;-2.50;99.90
23395;DHT22;11870;53.084;18.206;2022-12-18T03:00:24;-2.50;99.90
23395;DHT22;11870;53.084;18.206;2022-12-18T03:03:14;-2.50;99.90
23395;DHT22;11870;53.084;18.206;2022-12-18T03:06:06;-2.60;99.90
23395;DHT22;11870;53.084;18.206;2022-12-18T03:08:38;-2.60;99.90
23395;DHT22;11870;53.084;18.206;2022-12-18T03:11:10;-2.60;99.90
23395;DHT22;11870;53.084;18.206;2022-12-18T03:13:47;-2.70;99.90
23395;DHT22;11870;53.084;18.206;2022-12-18T03:16:22;-2.60;99.90
23395;DHT22;11870;53.084;18.206;2022-12-18T03:18:55;-2.70;99.90
23395;DHT22;11870;53.084;18.206;2022-12-18T03:21:37;-2.60;99.90
23395;DHT22;11870;53.084;18.206;2022-12-18T03:24:07;-2.60;99.90
23395;DHT22;11870;53.084;18.206;2022-12-18T03:26:35;-2.60;99.90
23395;DHT22;11870;53.084;18.206;2022-12-18T03:29:07;-2.60;99.90
23395;DHT22;11870;53.084;18.206;2022-12-18T03:31:35;-2.60;99.90
23395;DHT22;11870;53.084;18.206;2022-12-18T03:34:08;-2.60;99.90
23395;DHT22;11870;53.084;18.206;2022-12-18T03:36:35;-2.60;99.90
23395;DHT22;11870;53.084;18.206;2022-12-18T03:39:01;-2.70;99.90
23395;DHT22;11870;53.084;18.206;2022-12-18T03:47:28;-2.50;99.90
23395;DHT22;11870;53.084;18.206;2022-12-18T03:50:18;-2.60;99.90
23395;DHT22;11870;53.084;18.206;2022-12-18T03:52:53;-2.60;99.90
23395;DHT22;11870;53.084;18.206;2022-12-18T03:55:22;-2.60;99.90
23395;DHT22;11870;53.084;18.206;2022-12-18T03:57:50;-2.60;99.90
23395;DHT22;11870;53.084;18.206;2022-12-18T04:00:18;-2.60;99.90
23395;DHT22;11870;53.084;18.206;2022-12-18T04:02:51;-2.60;99.90
23395;DHT22;11870;53.084;18.206;2022-12-18T04:05:19;-2.60;99.90
23395;DHT22;11870;53.084;18.206;2022-12-18T04:07:47;-2.60;99.90
23395;DHT22;11870;53.084;18.206;2022-12-18T04:10:16;-2.60;99.90
23395;DHT22;11870;53.084;18.206;2022-12-18T04:12:42;-2.60;99.90
23395;DHT22;11870;53.084;18.206;2022-12-18T04:15:09;-2.50;99.90
23395;DHT22;11870;53.084;18.206;2022-12-18T04:17:35;-2.50;99.90
23395;DHT22;11870;53.084;18.206;2022-12-18T04:20:02;-2.50;99.90
23395;DHT22;11870;53.084;18.206;2022-12-18T04:22:28;-2.50;99.90
23395;DHT22;11870;53.084;18.206;2022-12-18T04:24:54;-2.60;99.90
23395;DHT22;11870;53.084;18.206;2022-12-18T04:27:20;-2.70;99.90
23395;DHT22;11870;53.084;18.206;2022-12-18T04:29:46;-2.60;99.90
23395;DHT22;11870;53.084;18.206;2022-12-18T04:32:12;-2.70;99.90
23395;DHT22;11870;53.084;18.206;2022-12-18T04:34:38;-2.70;99.90
23395;DHT22;11870;53.084;18.206;2022-12-18T04:37:04;-2.70;99.90
23395;DHT22;11870;53.084;18.206;2022-12-18T04:39:30;-2.80;99.90
23395;DHT22;11870;53.084;18.206;2022-12-18T04:41:56;-2.80;99.90
23395;DHT22;11870;53.084;18.206;2022-12-18T04:44:22;-2.90;99.90
23395;DHT22;11870;53.084;18.206;2022-12-18T04:46:47;-2.80;99.90
23395;DHT22;11870;53.084;18.206;2022-12-18T04:49:14;-2.80;99.90
23395;DHT22;11870;53.084;18.206;2022-12-18T04:51:40;-2.80;99.90
23395;DHT22;11870;53.084;18.206;2022-12-18T04:54:06;-2.80;99.90
23395;DHT22;11870;53.084;18.206;2022-12-18T04:56:31;-2.80;99.90
23395;DHT22;11870;53.084;18.206;2022-12-18T04:58:57;-2.90;99.90
23395;DHT22;11870;53.084;18.206;2022-12-18T05:01:23;-2.80;99.90
23395;DHT22;11870;53.084;18.206;2022-12-18T05:03:51;-2.80;99.90
23395;DHT22;11870;53.084;18.206;2022-12-18T05:06:17;-2.80;99.90
23395;DHT22;11870;53.084;18.206;2022-12-18T05:08:43;-2.80;99.90
23395;DHT22;11870;53.084;18.206;2022-12-18T05:11:11;-2.80;99.90
23395;DHT22;11870;53.084;18.206;2022-12-18T05:13:38;-2.70;99.90
23395;DHT22;11870;53.084;18.206;2022-12-18T05:16:04;-2.70;99.90
23395;DHT22;11870;53.084;18.206;2022-12-18T05:18:31;-2.80;99.90
23395;DHT22;11870;53.084;18.206;2022-12-18T05:20:57;-2.80;99.90
23395;DHT22;11870;53.084;18.206;2022-12-18T05:23:24;-2.70;99.90
23395;DHT22;11870;53.084;18.206;2022-12-18T05:26:02;-2.70;99.90
23395;DHT22;11870;53.084;18.206;2022-12-18T05:28:30;-2.70;99.90
23395;DHT22;11870;53.084;18.206;2022-12-18T05:30:58;-2.80;99.90
23395;DHT22;11870;53.084;18.206;2022-12-18T05:33:26;-2.80;99.90
23395;DHT22;11870;53.084;18.206;2022-12-18T05:36:03;-2.80;99.90
23395;DHT22;11870;53.084;18.206;2022-12-18T05:38:30;-2.80;99.90
23395;DHT22;11870;53.084;18.206;2022-12-18T05:40:56;-2.80;99.90
23395;DHT22;11870;53.084;18.206;2022-12-18T05:43:23;-2.80;99.90
23395;DHT22;11870;53.084;18.206;2022-12-18T05:45:50;-2.80;99.90
23395;DHT22;11870;53.084;18.206;2022-12-18T05:48:16;-2.90;99.90
23395;DHT22;11870;53.084;18.206;2022-12-18T05:50:44;-3.00;99.90
23395;DHT22;11870;53.084;18.206;2022-12-18T05:53:15;-3.00;99.90
23395;DHT22;11870;53.084;18.206;2022-12-18T05:55:42;-3.00;99.90
23395;DHT22;11870;53.084;18.206;2022-12-18T05:58:10;-3.00;99.90
23395;DHT22;11870;53.084;18.206;2022-12-18T06:00:38;-3.10;99.90
23395;DHT22;11870;53.084;18.206;2022-12-18T06:03:07;-3.20;99.90
23395;DHT22;11870;53.084;18.206;2022-12-18T06:05:38;-3.20;99.90
23395;DHT22;11870;53.084;18.206;2022-12-18T06:08:04;-3.20;99.90
23395;DHT22;11870;53.084;18.206;2022-12-18T06:10:30;-3.10;99.90
23395;DHT22;11870;53.084;18.206;2022-12-18T06:12:56;-3.20;99.90
23395;DHT22;11870;53.084;18.206;2022-12-18T06:15:22;-3.20;99.90
23395;DHT22;11870;53.084;18.206;2022-12-18T06:20:14;-3.30;99.90
23395;DHT22;11870;53.084;18.206;2022-12-18T06:22:40;-3.30;99.90
23395;DHT22;11870;53.084;18.206;2022-12-18T06:25:06;-3.40;99.90
23395;DHT22;11870;53.084;18.206;2022-12-18T06:27:33;-3.40;99.90
23395;DHT22;11870;53.084;18.206;2022-12-18T06:30:00;-3.60;99.90
23395;DHT22;11870;53.084;18.206;2022-12-18T06:32:26;-3.60;99.90
23395;DHT22;11870;53.084;18.206;2022-12-18T06:34:52;-3.60;99.90
23395;DHT22;11870;53.084;18.206;2022-12-18T06:37:19;-3.70;99.90
23395;DHT22;11870;53.084;18.206;2022-12-18T06:39:45;-3.80;99.90
23395;DHT22;11870;53.084;18.206;2022-12-18T06:42:11;-3.80;99.90
23395;DHT22;11870;53.084;18.206;2022-12-18T06:44:37;-3.80;99.90
23395;DHT22;11870;53.084;18.206;2022-12-18T06:47:18;-3.90;99.90
23395;DHT22;11870;53.084;18.206;2022-12-18T06:49:44;-4.00;99.90
23395;DHT22;11870;53.084;18.206;2022-12-18T06:52:10;-4.00;99.90
23395;DHT22;11870;53.084;18.206;2022-12-18T06:54:36;-4.00;99.90
23395;DHT22;11870;53.084;18.206;2022-12-18T06:59:28;-4.30;99.90
23395;DHT22;11870;53.084;18.206;2022-12-18T07:01:54;-4.40;99.90
23395;DHT22;11870;53.084;18.206;2022-12-18T07:04:20;-4.50;99.90
23395;DHT22;11870;53.084;18.206;2022-12-18T07:06:46;-4.60;99.90
23395;DHT22;11870;53.084;18.206;2022-12-18T07:09:12;-4.70;99.90
23395;DHT22;11870;53.084;18.206;2022-12-18T07:11:38;-4.70;99.90
23395;DHT22;11870;53.084;18.206;2022-12-18T07:14:04;-4.80;99.90
23395;DHT22;11870;53.084;18.206;2022-12-18T07:16:29;-4.70;99.90
23395;DHT22;11870;53.084;18.206;2022-12-18T07:18:56;-4.70;99.90
23395;DHT22;11870;53.084;18.206;2022-12-18T07:21:23;-4.70;99.90
23395;DHT22;11870;53.084;18.206;2022-12-18T07:23:49;-4.60;99.90
23395;DHT22;11870;53.084;18.206;2022-12-18T07:26:18;-4.60;99.90
23395;DHT22;11870;53.084;18.206;2022-12-18T07:28:44;-4.50;99.90
23395;DHT22;11870;53.084;18.206;2022-12-18T07:31:12;-4.40;99.90
23395;DHT22;11870;53.084;18.206;2022-12-18T07:33:39;-4.40;99.90
23395;DHT22;11870;53.084;18.206;2022-12-18T07:36:06;-4.30;99.90
23395;DHT22;11870;53.084;18.206;2022-12-18T07:38:34;-4.40;99.90
23395;DHT22;11870;53.084;18.206;2022-12-18T07:41:04;-4.40;99.90
23395;DHT22;11870;53.084;18.206;2022-12-18T07:43:30;-4.30;99.90
23395;DHT22;11870;53.084;18.206;2022-12-18T07:48:22;-4.30;99.90
23395;DHT22;11870;53.084;18.206;2022-12-18T07:50:48;-4.30;99.90
23395;DHT22;11870;53.084;18.206;2022-12-18T07:53:14;-4.20;99.90
23395;DHT22;11870;53.084;18.206;2022-12-18T07:55:41;-4.10;99.90
23395;DHT22;11870;53.084;18.206;2022-12-18T07:58:08;-4.00;99.90
23395;DHT22;11870;53.084;18.206;2022-12-18T08:00:34;-3.90;99.90
23395;DHT22;11870;53.084;18.206;2022-12-18T08:03:00;-3.90;99.90
23395;DHT22;11870;53.084;18.206;2022-12-18T08:05:27;-3.80;99.90
23395;DHT22;11870;53.084;18.206;2022-12-18T08:07:54;-3.80;99.90
23395;DHT22;11870;53.084;18.206;2022-12-18T08:10:20;-3.70;99.90
23395;DHT22;11870;53.084;18.206;2022-12-18T08:12:49;-3.80;99.90
23395;DHT22;11870;53.084;18.206;2022-12-18T08:15:15;-3.90;99.90
23395;DHT22;11870;53.084;18.206;2022-12-18T08:17:41;-3.90;99.90
23395;DHT22;11870;53.084;18.206;2022-12-18T08:20:08;-3.80;99.90
23395;DHT22;11870;53.084;18.206;2022-12-18T08:22:37;-3.80;99.90
23395;DHT22;11870;53.084;18.206;2022-12-18T08:25:03;-3.80;99.90
23395;DHT22;11870;53.084;18.206;2022-12-18T08:27:30;-3.70;99.90
23395;DHT22;11870;53.084;18.206;2022-12-18T08:29:57;-3.70;99.90
23395;DHT22;11870;53.084;18.206;2022-12-18T08:32:23;-3.60;99.90
23395;DHT22;11870;53.084;18.206;2022-12-18T08:34:49;-3.60;99.90
23395;DHT22;11870;53.084;18.206;2022-12-18T08:37:15;-3.60;99.90
23395;DHT22;11870;53.084;18.206;2022-12-18T08:39:41;-3.50;99.90
23395;DHT22;11870;53.084;18.206;2022-12-18T08:42:07;-3.40;99.90
23395;DHT22;11870;53.084;18.206;2022-12-18T08:44:51;-3.40;99.90
23395;DHT22;11870;53.084;18.206;2022-12-18T08:47:17;-3.30;99.90
23395;DHT22;11870;53.084;18.206;2022-12-18T08:49:43;-3.30;99.90
23395;DHT22;11870;53.084;18.206;2022-12-18T08:52:09;-3.30;99.90
23395;DHT22;11870;53.084;18.206;2022-12-18T08:54:35;-3.20;99.90
23395;DHT22;11870;53.084;18.206;2022-12-18T08:57:01;-3.40;99.90
23395;DHT22;11870;53.084;18.206;2022-12-18T08:59:28;-3.50;99.90
23395;DHT22;11870;53.084;18.206;2022-12-18T09:01:54;-3.50;99.90
23395;DHT22;11870;53.084;18.206;2022-12-18T09:04:21;-3.40;99.90
23395;DHT22;11870;53.084;18.206;2022-12-18T09:09:13;-3.40;99.90
23395;DHT22;11870;53.084;18.206;2022-12-18T09:11:39;-3.60;99.90
23395;DHT22;11870;53.084;18.206;2022-12-18T09:14:05;-3.60;99.90
23395;DHT22;11870;53.084;18.206;2022-12-18T09:16:31;-3.50;99.90
23395;DHT22;11870;53.084;18.206;2022-12-18T09:18:58;-3.40;99.90
23395;DHT22;11870;53.084;18.206;2022-12-18T09:21:29;-3.30;99.90
23395;DHT22;11870;53.084;18.206;2022-12-18T09:23:55;-3.20;99.90
23395;DHT22;11870;53.084;18.206;2022-12-18T09:26:23;-3.10;99.90
23395;DHT22;11870;53.084;18.206;2022-12-18T09:28:49;-3.10;99.90
23395;DHT22;11870;53.084;18.206;2022-12-18T09:31:17;-3.00;99.90
23395;DHT22;11870;53.084;18.206;2022-12-18T09:33:43;-3.00;99.90
23395;DHT22;11870;53.084;18.206;2022-12-18T09:36:14;-2.90;99.90
23395;DHT22;11870;53.084;18.206;2022-12-18T09:38:40;-3.00;99.90
23395;DHT22;11870;53.084;18.206;2022-12-18T09:41:33;-2.70;99.90
23395;DHT22;11870;53.084;18.206;2022-12-18T09:44:05;-2.40;99.90
23395;DHT22;11870;53.084;18.206;2022-12-18T09:46:40;-2.20;99.90
23395;DHT22;11870;53.084;18.206;2022-12-18T09:49:14;-2.10;99.90
23395;DHT22;11870;53.084;18.206;2022-12-18T09:51:52;-2.20;99.90
23395;DHT22;11870;53.084;18.206;2022-12-18T09:54:38;-2.20;99.90
23395;DHT22;11870;53.084;18.206;2022-12-18T09:57:05;-2.20;99.90
23395;DHT22;11870;53.084;18.206;2022-12-18T09:59:35;-1.90;99.90
23395;DHT22;11870;53.084;18.206;2022-12-18T10:02:14;-2.00;99.90
23395;DHT22;11870;53.084;18.206;2022-12-18T10:04:41;-1.80;99.90
23395;DHT22;11870;53.084;18.206;2022-12-18T10:07:19;-1.70;99.90
23395;DHT22;11870;53.084;18.206;2022-12-18T10:15:36;-2.00;99.90
23395;DHT22;11870;53.084;18.206;2022-12-18T10:20:52;-2.10;99.90
23395;DHT22;11870;53.084;18.206;2022-12-18T10:26:06;-2.20;99.90
23395;DHT22;11870;53.084;18.206;2022-12-18T10:28:35;-1.20;99.90
23395;DHT22;11870;53.084;18.206;2022-12-18T10:31:01;-2.30;99.90
23395;DHT22;11870;53.084;18.206;2022-12-18T10:33:30;-2.20;99.90
23395;DHT22;11870;53.084;18.206;2022-12-18T10:35:57;-2.20;99.90
23395;DHT22;11870;53.084;18.206;2022-12-18T10:41:33;-2.20;99.90
23395;DHT22;11870;53.084;18.206;2022-12-18T10:43:40;-2.10;99.90
23395;DHT22;11870;53.084;18.206;2022-12-18T10:51:30;-2.00;99.90
23395;DHT22;11870;53.084;18.206;2022-12-18T10:54:00;-2.20;99.90
23395;DHT22;11870;53.084;18.206;2022-12-18T10:56:28;-2.40;99.90
23395;DHT22;11870;53.084;18.206;2022-12-18T10:59:06;-2.50;99.90
23395;DHT22;11870;53.084;18.206;2022-12-18T11:01:46;-2.70;99.90
23395;DHT22;11870;53.084;18.206;2022-12-18T11:04:17;-2.80;99.90
23395;DHT22;11870;53.084;18.206;2022-12-18T11:06:56;-2.90;99.90
23395;DHT22;11870;53.084;18.206;2022-12-18T11:09:27;-2.90;99.90
23395;DHT22;11870;53.084;18.206;2022-12-18T11:11:59;-2.90;99.90
23395;DHT22;11870;53.084;18.206;2022-12-18T11:14:28;-2.80;99.90
23395;DHT22;11870;53.084;18.206;2022-12-18T11:16:55;-2.70;99.90
23395;DHT22;11870;53.084;18.206;2022-12-18T11:21:57;-2.60;99.90
23395;DHT22;11870;53.084;18.206;2022-12-18T11:24:29;-0.40;99.90
23395;DHT22;11870;53.084;18.206;2022-12-18T11:26:58;-2.70;99.90
23395;DHT22;11870;53.084;18.206;2022-12-18T11:29:44;-2.80;99.90
23395;DHT22;11870;53.084;18.206;2022-12-18T11:32:29;-2.80;99.90
23395;DHT22;11870;53.084;18.206;2022-12-18T11:35:13;-3.00;99.90
23395;DHT22;11870;53.084;18.206;2022-12-18T11:37:45;-3.10;99.90
23395;DHT22;11870;53.084;18.206;2022-12-18T11:40:19;-3.10;99.90
23395;DHT22;11870;53.084;18.206;2022-12-18T11:42:57;-3.10;99.90
23395;DHT22;11870;53.084;18.206;2022-12-18T11:45:43;-3.10;99.90
23395;DHT22;11870;53.084;18.206;2022-12-18T11:48:32;-3.10;99.90
23395;DHT22;11870;53.084;18.206;2022-12-18T11:51:02;-3.00;99.90
23395;DHT22;11870;53.084;18.206;2022-12-18T11:53:29;-2.90;99.90
23395;DHT22;11870;53.084;18.206;2022-12-18T12:09:10;-3.00;99.90
23395;DHT22;11870;53.084;18.206;2022-12-18T12:17:15;-3.00;99.90
23395;DHT22;11870;53.084;18.206;2022-12-18T12:22:35;-3.20;99.90
23395;DHT22;11870;53.084;18.206;2022-12-18T12:25:26;-3.20;99.90
23395;DHT22;11870;53.084;18.206;2022-12-18T12:28:11;-3.30;99.90
23395;DHT22;11870;53.084;18.206;2022-12-18T12:30:48;-3.50;99.90
23395;DHT22;11870;53.084;18.206;2022-12-18T12:33:36;-3.50;99.90
23395;DHT22;11870;53.084;18.206;2022-12-18T12:38:59;-3.30;99.90
23395;DHT22;11870;53.084;18.206;2022-12-18T12:41:31;-3.30;99.90
23395;DHT22;11870;53.084;18.206;2022-12-18T12:44:20;-3.10;99.90
23395;DHT22;11870;53.084;18.206;2022-12-18T12:46:48;-3.10;99.90
23395;DHT22;11870;53.084;18.206;2022-12-18T12:49:20;-3.10;99.90
23395;DHT22;11870;53.084;18.206;2022-12-18T12:51:53;-3.10;99.90
23395;DHT22;11870;53.084;18.206;2022-12-18T12:54:24;-3.10;99.90
23395;DHT22;11870;53.084;18.206;2022-12-18T13:08:08;-3.30;99.90
23395;DHT22;11870;53.084;18.206;2022-12-18T13:10:37;-3.50;99.90
23395;DHT22;11870;53.084;18.206;2022-12-18T13:13:11;-3.60;99.90
23395;DHT22;11870;53.084;18.206;2022-12-18T13:16:03;-3.70;99.90
23395;DHT22;11870;53.084;18.206;2022-12-18T13:18:29;-3.80;99.90
23395;DHT22;11870;53.084;18.206;2022-12-18T13:28:23;-3.70;99.90
23395;DHT22;11870;53.084;18.206;2022-12-18T13:31:08;-3.70;99.90
23395;DHT22;11870;53.084;18.206;2022-12-18T13:38:42;-4.00;99.90
23395;DHT22;11870;53.084;18.206;2022-12-18T13:43:46;-4.00;99.90
23395;DHT22;11870;53.084;18.206;2022-12-18T13:46:29;-4.00;99.90
23395;DHT22;11870;53.084;18.206;2022-12-18T13:49:06;-4.00;99.90
23395;DHT22;11870;53.084;18.206;2022-12-18T13:51:45;-4.20;99.90
23395;DHT22;11870;53.084;18.206;2022-12-18T13:56:43;-4.30;99.90
23395;DHT22;11870;53.084;18.206;2022-12-18T14:02:16;-4.30;99.90
23395;DHT22;11870;53.084;18.206;2022-12-18T14:04:46;-4.50;99.90
23395;DHT22;11870;53.084;18.206;2022-12-18T14:07:15;-4.50;99.90
23395;DHT22;11870;53.084;18.206;2022-12-18T14:09:53;-4.50;99.90
23395;DHT22;11870;53.084;18.206;2022-12-18T14:12:25;-4.50;99.90
23395;DHT22;11870;53.084;18.206;2022-12-18T14:15:24;-4.60;99.90
23395;DHT22;11870;53.084;18.206;2022-12-18T14:18:07;-4.60;99.90
23395;DHT22;11870;53.084;18.206;2022-12-18T14:20:41;-4.60;99.90
23395;DHT22;11870;53.084;18.206;2022-12-18T14:23:37;-4.60;99.90
23395;DHT22;11870;53.084;18.206;2022-12-18T14:26:21;-4.70;99.90
23395;DHT22;11870;53.084;18.206;2022-12-18T14:28:47;-4.60;99.90
23395;DHT22;11870;53.084;18.206;2022-12-18T14:31:21;-4.60;99.90
23395;DHT22;11870;53.084;18.206;2022-12-18T14:33:47;-4.70;99.90
23395;DHT22;11870;53.084;18.206;2022-12-18T14:36:33;-4.70;99.90
23395;DHT22;11870;53.084;18.206;2022-12-18T14:38:59;-4.70;99.90
23395;DHT22;11870;53.084;18.206;2022-12-18T14:41:25;-4.60;99.90
23395;DHT22;11870;53.084;18.206;2022-12-18T14:43:53;-4.70;99.90
23395;DHT22;11870;53.084;18.206;2022-12-18T14:48:52;-4.70;99.90
23395;DHT22;11870;53.084;18.206;2022-12-18T14:51:25;-4.70;99.90
23395;DHT22;11870;53.084;18.206;2022-12-18T14:53:57;-4.70;99.90
23395;DHT22;11870;53.084;18.206;2022-12-18T14:59:00;-4.70;99.90
23395;DHT22;11870;53.084;18.206;2022-12-18T15:01:29;-4.70;99.90
23395;DHT22;11870;53.084;18.206;2022-12-18T15:03:57;-4.70;99.90
23395;DHT22;11870;53.084;18.206;2022-12-18T15:06:37;-4.80;99.90
23395;DHT22;11870;53.084;18.206;2022-12-18T15:09:24;-4.80;99.90
23395;DHT22;11870;53.084;18.206;2022-12-18T15:11:57;-4.80;99.90
23395;DHT22;11870;53.084;18.206;2022-12-18T15:16:56;-4.80;99.90
23395;DHT22;11870;53.084;18.206;2022-12-18T15:19:41;-4.80;99.90
23395;DHT22;11870;53.084;18.206;2022-12-18T15:22:28;-4.80;99.90
23395;DHT22;11870;53.084;18.206;2022-12-18T15:24:56;-4.80;99.90
23395;DHT22;11870;53.084;18.206;2022-12-18T15:27:34;-4.80;99.90
23395;DHT22;11870;53.084;18.206;2022-12-18T15:32:37;-4.70;99.90
23395;DHT22;11870;53.084;18.206;2022-12-18T15:35:19;-4.70;99.90
23395;DHT22;11870;53.084;18.206;2022-12-18T15:37:46;-4.70;99.90
23395;DHT22;11870;53.084;18.206;2022-12-18T15:40:21;-4.60;99.90
23395;DHT22;11870;53.084;18.206;2022-12-18T15:42:48;-4.60;99.90
23395;DHT22;11870;53.084;18.206;2022-12-18T15:45:32;-4.60;99.90
23395;DHT22;11870;53.084;18.206;2022-12-18T15:47:59;-4.60;99.90
23395;DHT22;11870;53.084;18.206;2022-12-18T15:50:25;-4.60;99.90
23395;DHT22;11870;53.084;18.206;2022-12-18T15:52:52;-4.60;99.90
23395;DHT22;11870;53.084;18.206;2022-12-18T15:55:21;-4.60;99.90
23395;DHT22;11870;53.084;18.206;2022-12-18T15:58:07;-4.60;99.90
23395;DHT22;11870;53.084;18.206;2022-12-18T16:00:35;-4.60;99.90
23395;DHT22;11870;53.084;18.206;2022-12-18T16:03:02;-4.50;99.90
23395;DHT22;11870;53.084;18.206;2022-12-18T16:05:29;-4.60;99.90
23395;DHT22;11870;53.084;18.206;2022-12-18T16:07:55;-4.60;99.90
23395;DHT22;11870;53.084;18.206;2022-12-18T16:10:22;-4.60;99.90
23395;DHT22;11870;53.084;18.206;2022-12-18T16:12:48;-4.60;99.90
23395;DHT22;11870;53.084;18.206;2022-12-18T16:15:14;-4.60;99.90
23395;DHT22;11870;53.084;18.206;2022-12-18T16:17:42;-4.60;99.90
23395;DHT22;11870;53.084;18.206;2022-12-18T16:20:21;-4.50;99.90
23395;DHT22;11870;53.084;18.206;2022-12-18T16:22:48;-4.50;99.90
23395;DHT22;11870;53.084;18.206;2022-12-18T16:25:24;-4.50;99.90
23395;DHT22;11870;53.084;18.206;2022-12-18T16:27:50;-4.50;99.90
23395;DHT22;11870;53.084;18.206;2022-12-18T16:30:20;-4.30;99.90
23395;DHT22;11870;53.084;18.206;2022-12-18T16:32:46;-4.20;99.90
23395;DHT22;11870;53.084;18.206;2022-12-18T16:35:14;-4.10;99.90
23395;DHT22;11870;53.084;18.206;2022-12-18T16:37:41;-3.90;99.90
23395;DHT22;11870;53.084;18.206;2022-12-18T16:40:10;-3.90;99.90
23395;DHT22;11870;53.084;18.206;2022-12-18T16:42:37;-3.80;99.90
23395;DHT22;11870;53.084;18.206;2022-12-18T16:45:05;-3.80;99.90
23395;DHT22;11870;53.084;18.206;2022-12-18T16:47:31;-3.90;99.90
23395;DHT22;11870;53.084;18.206;2022-12-18T16:49:57;-4.00;99.90
23395;DHT22;11870;53.084;18.206;2022-12-18T16:52:23;-4.20;99.90
23395;DHT22;11870;53.084;18.206;2022-12-18T16:54:50;-4.20;99.90
23395;DHT22;11870;53.084;18.206;2022-12-18T16:57:17;-4.20;99.90
23395;DHT22;11870;53.084;18.206;2022-12-18T16:59:44;-4.30;99.90
23395;DHT22;11870;53.084;18.206;2022-12-18T17:02:19;-4.30;99.90
23395;DHT22;11870;53.084;18.206;2022-12-18T17:04:46;-4.20;99.90
23395;DHT22;11870;53.084;18.206;2022-12-18T17:07:12;-4.20;99.90
23395;DHT22;11870;53.084;18.206;2022-12-18T17:09:39;-4.30;99.90
23395;DHT22;11870;53.084;18.206;2022-12-18T17:12:05;-4.20;99.90
23395;DHT22;11870;53.084;18.206;2022-12-18T17:14:32;-4.10;99.90
23395;DHT22;11870;53.084;18.206;2022-12-18T17:16:58;-4.20;99.90
23395;DHT22;11870;53.084;18.206;2022-12-18T17:19:25;-4.20;99.90
23395;DHT22;11870;53.084;18.206;2022-12-18T17:21:52;-4.20;99.90
23395;DHT22;11870;53.084;18.206;2022-12-18T17:24:18;-4.40;99.90
23395;DHT22;11870;53.084;18.206;2022-12-18T17:26:44;-4.60;99.90
23395;DHT22;11870;53.084;18.206;2022-12-18T17:29:16;-4.60;99.90
23395;DHT22;11870;53.084;18.206;2022-12-18T17:31:42;-4.70;99.90
23395;DHT22;11870;53.084;18.206;2022-12-18T17:34:12;-4.70;99.90
23395;DHT22;11870;53.084;18.206;2022-12-18T17:36:38;-4.70;99.90
23395;DHT22;11870;53.084;18.206;2022-12-18T17:39:06;-4.70;99.90
23395;DHT22;11870;53.084;18.206;2022-12-18T17:44:01;-4.80;99.90
23395;DHT22;11870;53.084;18.206;2022-12-18T17:46:29;-4.70;99.90
23395;DHT22;11870;53.084;18.206;2022-12-18T17:48:59;-4.70;99.90